EJA1106 KHVN-KRDU
Flight info
| Callsign | EJA1106 |
|---|---|
| Flight time | 1h 23m |
| Altitude | 43000 |
| Route | BEADS EMJAY Q167 ZJAAY TAQLE3 |
| Aircraft | C700/M-SBDGHM1RWXY/LB2 |
Departure
| Time | 2026-05-06 18:15 |
|---|---|
| Airport | Tweed New Haven Airport (KHVN) |
Arrival
| Time | 2026-05-06 19:38 |
|---|---|
| Airport | Raleigh-Durham International Airport (KRDU) |
| Time | Latitude | Longitude | Altitude | Speed | Heading |
|---|---|---|---|---|---|
| 2026-05-06 17:52 | 41.26780 | -72.88498 | 13 ft | 0 kts | 28° |
| 2026-05-06 18:10 | 41.26782 | -72.88497 | 13 ft | 0 kts | 24° |
| 2026-05-06 18:11 | 41.26785 | -72.88499 | 12 ft | 1 kts | 342° |
| 2026-05-06 18:11 | 41.26783 | -72.88508 | 12 ft | 1 kts | 238° |
| 2026-05-06 18:11 | 41.26758 | -72.88509 | 13 ft | 8 kts | 176° |
| 2026-05-06 18:11 | 41.26684 | -72.88567 | 11 ft | 19 kts | 220° |
| 2026-05-06 18:12 | 41.26622 | -72.88636 | 10 ft | 9 kts | 222° |
| 2026-05-06 18:12 | 41.26557 | -72.88613 | 11 ft | 15 kts | 133° |
| 2026-05-06 18:12 | 41.26464 | -72.88473 | 11 ft | 15 kts | 131° |
| 2026-05-06 18:12 | 41.26397 | -72.88492 | 13 ft | 15 kts | 219° |
| 2026-05-06 18:13 | 41.26276 | -72.88603 | 11 ft | 27 kts | 202° |
| 2026-05-06 18:13 | 41.26073 | -72.88654 | 14 ft | 30 kts | 190° |
| 2026-05-06 18:13 | 41.25872 | -72.88700 | 13 ft | 29 kts | 188° |
| 2026-05-06 18:13 | 41.25688 | -72.88719 | 12 ft | 11 kts | 182° |
| 2026-05-06 18:14 | 41.25684 | -72.88719 | 11 ft | 0 kts | 182° |
| 2026-05-06 18:14 | 41.25656 | -72.88721 | 10 ft | 10 kts | 182° |
| 2026-05-06 18:14 | 41.25612 | -72.88794 | 10 ft | 15 kts | 269° |
| 2026-05-06 18:14 | 41.25667 | -72.88822 | 11 ft | 30 kts | 5° |
| 2026-05-06 18:15 | 41.26228 | -72.88783 | 18 ft | 129 kts | 5° |
| 2026-05-06 18:15 | 41.27315 | -72.88678 | 409 ft | 182 kts | 8° |
| 2026-05-06 18:15 | 41.28652 | -72.87999 | 1008 ft | 215 kts | 26° |
| 2026-05-06 18:15 | 41.30104 | -72.87220 | 2071 ft | 244 kts | 19° |
| 2026-05-06 18:16 | 41.31866 | -72.86277 | 2137 ft | 282 kts | 20° |
| 2026-05-06 18:16 | 41.33559 | -72.85329 | 2072 ft | 249 kts | 20° |
| 2026-05-06 18:16 | 41.35006 | -72.84132 | 2019 ft | 262 kts | 50° |
| 2026-05-06 18:16 | 41.35645 | -72.81787 | 2734 ft | 283 kts | 96° |
| 2026-05-06 18:17 | 41.35038 | -72.79402 | 4347 ft | 268 kts | 135° |
| 2026-05-06 18:17 | 41.33593 | -72.78052 | 6265 ft | 249 kts | 170° |
| 2026-05-06 18:17 | 41.31888 | -72.77673 | 7758 ft | 264 kts | 180° |
| 2026-05-06 18:17 | 41.30046 | -72.77329 | 8002 ft | 266 kts | 177° |
| 2026-05-06 18:18 | 41.28262 | -72.76717 | 8011 ft | 264 kts | 171° |
| 2026-05-06 18:18 | 41.26524 | -72.75923 | 8008 ft | 262 kts | 170° |
| 2026-05-06 18:18 | 41.24793 | -72.75179 | 8043 ft | 266 kts | 172° |
| 2026-05-06 18:18 | 41.23072 | -72.74492 | 9812 ft | 258 kts | 173° |
| 2026-05-06 18:19 | 41.21306 | -72.73779 | 11362 ft | 271 kts | 173° |
| 2026-05-06 18:19 | 41.19465 | -72.73026 | 12906 ft | 281 kts | 173° |
| 2026-05-06 18:19 | 41.17578 | -72.72250 | 14302 ft | 292 kts | 173° |
| 2026-05-06 18:19 | 41.15598 | -72.71436 | 15659 ft | 303 kts | 173° |
| 2026-05-06 18:20 | 41.13535 | -72.70596 | 16896 ft | 315 kts | 173° |
| 2026-05-06 18:20 | 41.11402 | -72.69721 | 18164 ft | 326 kts | 172° |
| 2026-05-06 18:20 | 41.09226 | -72.68829 | 19252 ft | 335 kts | 172° |
| 2026-05-06 18:20 | 41.06978 | -72.67906 | 20452 ft | 341 kts | 172° |
| 2026-05-06 18:21 | 41.04688 | -72.66973 | 21565 ft | 347 kts | 172° |
| 2026-05-06 18:21 | 41.02354 | -72.66021 | 22638 ft | 354 kts | 172° |
| 2026-05-06 18:21 | 40.99970 | -72.65049 | 23691 ft | 360 kts | 172° |
| 2026-05-06 18:21 | 40.97554 | -72.64063 | 24618 ft | 366 kts | 172° |
| 2026-05-06 18:22 | 40.95119 | -72.63072 | 25556 ft | 372 kts | 172° |
| 2026-05-06 18:22 | 40.92611 | -72.62054 | 26510 ft | 379 kts | 172° |
| 2026-05-06 18:22 | 40.90066 | -72.61020 | 27403 ft | 386 kts | 172° |
| 2026-05-06 18:22 | 40.87468 | -72.59964 | 28281 ft | 393 kts | 172° |
| 2026-05-06 18:23 | 40.84819 | -72.58890 | 29127 ft | 400 kts | 172° |
| 2026-05-06 18:23 | 40.82161 | -72.57902 | 29971 ft | 400 kts | 178° |
| 2026-05-06 18:23 | 40.79395 | -72.57413 | 30671 ft | 397 kts | 186° |
| 2026-05-06 18:23 | 40.76675 | -72.57426 | 31295 ft | 394 kts | 194° |
| 2026-05-06 18:24 | 40.73969 | -72.57933 | 31944 ft | 389 kts | 202° |
| 2026-05-06 18:24 | 40.71370 | -72.58910 | 32603 ft | 385 kts | 210° |
| 2026-05-06 18:24 | 40.68932 | -72.60319 | 33247 ft | 380 kts | 218° |
| 2026-05-06 18:24 | 40.66684 | -72.62121 | 33882 ft | 375 kts | 225° |
| 2026-05-06 18:25 | 40.64683 | -72.64230 | 34436 ft | 371 kts | 231° |
| 2026-05-06 18:25 | 40.62718 | -72.66469 | 34983 ft | 374 kts | 231° |
| 2026-05-06 18:25 | 40.60719 | -72.68710 | 35510 ft | 377 kts | 231° |
| 2026-05-06 18:25 | 40.58720 | -72.70960 | 36006 ft | 379 kts | 231° |
| 2026-05-06 18:26 | 40.56712 | -72.73232 | 36456 ft | 382 kts | 231° |
| 2026-05-06 18:26 | 40.54714 | -72.75486 | 36881 ft | 384 kts | 232° |
| 2026-05-06 18:26 | 40.52677 | -72.77778 | 37288 ft | 386 kts | 232° |
| 2026-05-06 18:26 | 40.50628 | -72.80083 | 37667 ft | 388 kts | 232° |
| 2026-05-06 18:27 | 40.48569 | -72.82397 | 38025 ft | 390 kts | 232° |
| 2026-05-06 18:27 | 40.46496 | -72.84728 | 38352 ft | 392 kts | 232° |
| 2026-05-06 18:27 | 40.44415 | -72.87062 | 38640 ft | 394 kts | 232° |
| 2026-05-06 18:27 | 40.42348 | -72.89380 | 38852 ft | 396 kts | 232° |
| 2026-05-06 18:28 | 40.40237 | -72.91745 | 39033 ft | 399 kts | 232° |
| 2026-05-06 18:28 | 40.38113 | -72.94125 | 39209 ft | 402 kts | 232° |
| 2026-05-06 18:28 | 40.36000 | -72.96486 | 39386 ft | 404 kts | 231° |
| 2026-05-06 18:28 | 40.33848 | -72.98891 | 39554 ft | 406 kts | 231° |
| 2026-05-06 18:29 | 40.31682 | -73.01310 | 39715 ft | 409 kts | 231° |
| 2026-05-06 18:29 | 40.30241 | -73.02917 | 39819 ft | 410 kts | 231° |
| 2026-05-06 18:29 | 40.28060 | -73.05350 | 39976 ft | 413 kts | 231° |
| 2026-05-06 18:29 | 40.25148 | -73.08591 | 40326 ft | 411 kts | 231° |
| 2026-05-06 18:30 | 40.23707 | -73.10187 | 40595 ft | 409 kts | 231° |
| 2026-05-06 18:30 | 40.21532 | -73.12613 | 40655 ft | 413 kts | 231° |
| 2026-05-06 18:30 | 40.19341 | -73.15054 | 40809 ft | 414 kts | 230° |
| 2026-05-06 18:30 | 40.17132 | -73.17503 | 40933 ft | 416 kts | 230° |
| 2026-05-06 18:31 | 40.14915 | -73.19957 | 41209 ft | 414 kts | 230° |
| 2026-05-06 18:31 | 40.12708 | -73.22400 | 41328 ft | 416 kts | 230° |
| 2026-05-06 18:31 | 40.10523 | -73.24828 | 41439 ft | 418 kts | 230° |
| 2026-05-06 18:31 | 40.08289 | -73.27299 | 41557 ft | 419 kts | 230° |
| 2026-05-06 18:32 | 40.06068 | -73.29789 | 41671 ft | 420 kts | 230° |
| 2026-05-06 18:32 | 40.03854 | -73.32293 | 41778 ft | 422 kts | 230° |
| 2026-05-06 18:32 | 40.01644 | -73.34768 | 41884 ft | 423 kts | 230° |
| 2026-05-06 18:32 | 39.99396 | -73.37274 | 41994 ft | 424 kts | 230° |
| 2026-05-06 18:33 | 39.94935 | -73.42255 | 42548 ft | 419 kts | 230° |
| 2026-05-06 18:33 | 39.92719 | -73.44730 | 42690 ft | 419 kts | 230° |
| 2026-05-06 18:33 | 39.90502 | -73.47209 | 42802 ft | 420 kts | 230° |
| 2026-05-06 18:34 | 39.86055 | -73.52160 | 42892 ft | 423 kts | 230° |
| 2026-05-06 18:34 | 39.81607 | -73.57099 | 42894 ft | 415 kts | 230° |
| 2026-05-06 18:35 | 39.77246 | -73.61964 | 42891 ft | 410 kts | 230° |
| 2026-05-06 18:35 | 39.72915 | -73.66777 | 42892 ft | 412 kts | 230° |
| 2026-05-06 18:36 | 39.68536 | -73.71633 | 42890 ft | 414 kts | 230° |
| 2026-05-06 18:36 | 39.64160 | -73.76476 | 42898 ft | 415 kts | 230° |
| 2026-05-06 18:37 | 39.59770 | -73.81326 | 42893 ft | 412 kts | 230° |
| 2026-05-06 18:37 | 39.55444 | -73.86100 | 42896 ft | 409 kts | 230° |
| 2026-05-06 18:38 | 39.51098 | -73.90887 | 42899 ft | 408 kts | 230° |
| 2026-05-06 18:38 | 39.46773 | -73.95645 | 42899 ft | 412 kts | 230° |
| 2026-05-06 18:39 | 39.42389 | -74.00454 | 42904 ft | 414 kts | 230° |
| 2026-05-06 18:40 | 39.35815 | -74.07646 | 42903 ft | 410 kts | 230° |
| 2026-05-06 18:40 | 39.31800 | -74.12675 | 42908 ft | 395 kts | 240° |
| 2026-05-06 18:41 | 39.28481 | -74.18331 | 42905 ft | 393 kts | 244° |
| 2026-05-06 18:41 | 39.25220 | -74.24004 | 42907 ft | 404 kts | 237° |
| 2026-05-06 18:42 | 39.20948 | -74.28961 | 42910 ft | 417 kts | 229° |
| 2026-05-06 18:42 | 39.16457 | -74.33630 | 42912 ft | 416 kts | 229° |
| 2026-05-06 18:43 | 39.11878 | -74.38223 | 42911 ft | 414 kts | 229° |
| 2026-05-06 18:43 | 39.07383 | -74.42804 | 42918 ft | 414 kts | 229° |
| 2026-05-06 18:44 | 39.02824 | -74.47409 | 42915 ft | 416 kts | 229° |
| 2026-05-06 18:44 | 38.98276 | -74.52005 | 42913 ft | 419 kts | 229° |
| 2026-05-06 18:45 | 38.93674 | -74.56644 | 42918 ft | 420 kts | 229° |
| 2026-05-06 18:45 | 38.89100 | -74.61246 | 42916 ft | 418 kts | 229° |
| 2026-05-06 18:46 | 38.84527 | -74.65843 | 42917 ft | 417 kts | 229° |
| 2026-05-06 18:46 | 38.79966 | -74.70419 | 42917 ft | 415 kts | 229° |
| 2026-05-06 18:47 | 38.75417 | -74.74980 | 42920 ft | 419 kts | 229° |
| 2026-05-06 18:47 | 38.70792 | -74.79602 | 42922 ft | 422 kts | 229° |
| 2026-05-06 18:48 | 38.66145 | -74.84236 | 42930 ft | 422 kts | 229° |
| 2026-05-06 18:48 | 38.61547 | -74.88819 | 42924 ft | 420 kts | 229° |
| 2026-05-06 18:49 | 38.56943 | -74.93398 | 42931 ft | 418 kts | 229° |
| 2026-05-06 18:49 | 38.52349 | -74.97965 | 42936 ft | 419 kts | 229° |
| 2026-05-06 18:50 | 38.47738 | -75.02538 | 42940 ft | 422 kts | 229° |
| 2026-05-06 18:50 | 38.43106 | -75.07122 | 42940 ft | 424 kts | 229° |
| 2026-05-06 18:51 | 38.38438 | -75.11731 | 42944 ft | 422 kts | 229° |
| 2026-05-06 18:51 | 38.33799 | -75.16309 | 42945 ft | 419 kts | 229° |
| 2026-05-06 18:52 | 38.29185 | -75.20857 | 42944 ft | 421 kts | 229° |
| 2026-05-06 18:52 | 38.24550 | -75.25416 | 42947 ft | 425 kts | 229° |
| 2026-05-06 18:53 | 38.19838 | -75.30038 | 42945 ft | 426 kts | 229° |
| 2026-05-06 18:53 | 38.15142 | -75.34638 | 42932 ft | 423 kts | 229° |
| 2026-05-06 18:54 | 38.10504 | -75.39177 | 42945 ft | 421 kts | 229° |
| 2026-05-06 18:54 | 38.05845 | -75.43738 | 42949 ft | 422 kts | 229° |
| 2026-05-06 18:55 | 38.01552 | -75.48687 | 42963 ft | 419 kts | 233° |
| 2026-05-06 18:55 | 37.97278 | -75.53639 | 42017 ft | 412 kts | 233° |
| 2026-05-06 18:55 | 37.95198 | -75.56089 | 41075 ft | 392 kts | 234° |
| 2026-05-06 18:56 | 37.93256 | -75.58336 | 39883 ft | 368 kts | 234° |
| 2026-05-06 18:56 | 37.91433 | -75.60484 | 38710 ft | 358 kts | 235° |
| 2026-05-06 18:56 | 37.89635 | -75.62606 | 37357 ft | 350 kts | 234° |
| 2026-05-06 18:56 | 37.87857 | -75.64681 | 36073 ft | 344 kts | 232° |
| 2026-05-06 18:57 | 37.86101 | -75.66726 | 34854 ft | 340 kts | 231° |
| 2026-05-06 18:57 | 37.84373 | -75.68742 | 33652 ft | 336 kts | 230° |
| 2026-05-06 18:57 | 37.82669 | -75.70725 | 32380 ft | 333 kts | 230° |
| 2026-05-06 18:57 | 37.80968 | -75.72707 | 31140 ft | 330 kts | 230° |
| 2026-05-06 18:58 | 37.79287 | -75.74662 | 29988 ft | 326 kts | 231° |
| 2026-05-06 18:58 | 37.77615 | -75.76605 | 28644 ft | 323 kts | 231° |
| 2026-05-06 18:58 | 37.75986 | -75.78501 | 27381 ft | 321 kts | 231° |
| 2026-05-06 18:58 | 37.74343 | -75.80409 | 26155 ft | 319 kts | 231° |
| 2026-05-06 18:59 | 37.72703 | -75.82314 | 24985 ft | 319 kts | 231° |
| 2026-05-06 18:59 | 37.71067 | -75.84209 | 24062 ft | 316 kts | 231° |
| 2026-05-06 18:59 | 37.69505 | -75.86001 | 23967 ft | 291 kts | 231° |
| 2026-05-06 18:59 | 37.67964 | -75.87816 | 23958 ft | 323 kts | 231° |
| 2026-05-06 19:00 | 37.66235 | -75.89859 | 23968 ft | 358 kts | 230° |
| 2026-05-06 19:00 | 37.64299 | -75.92081 | 23968 ft | 391 kts | 229° |
| 2026-05-06 19:00 | 37.62205 | -75.94478 | 23962 ft | 419 kts | 229° |
| 2026-05-06 19:00 | 37.60797 | -75.96164 | 23964 ft | 421 kts | 232° |
| 2026-05-06 19:01 | 37.58284 | -75.99937 | 23957 ft | 418 kts | 237° |
| 2026-05-06 19:01 | 37.56480 | -76.02733 | 23956 ft | 414 kts | 236° |
| 2026-05-06 19:01 | 37.54659 | -76.05534 | 23960 ft | 412 kts | 236° |
| 2026-05-06 19:01 | 37.52849 | -76.08356 | 23951 ft | 413 kts | 237° |
| 2026-05-06 19:02 | 37.51037 | -76.11178 | 23953 ft | 414 kts | 236° |
| 2026-05-06 19:02 | 37.49212 | -76.14002 | 23953 ft | 415 kts | 236° |
| 2026-05-06 19:02 | 37.47381 | -76.16835 | 23948 ft | 416 kts | 236° |
| 2026-05-06 19:02 | 37.45572 | -76.19634 | 23953 ft | 417 kts | 236° |
| 2026-05-06 19:03 | 37.43729 | -76.22483 | 23956 ft | 418 kts | 236° |
| 2026-05-06 19:03 | 37.41892 | -76.25322 | 23957 ft | 418 kts | 236° |
| 2026-05-06 19:03 | 37.40055 | -76.28151 | 23964 ft | 416 kts | 236° |
| 2026-05-06 19:03 | 37.38249 | -76.30939 | 23964 ft | 414 kts | 236° |
| 2026-05-06 19:04 | 37.36425 | -76.33750 | 23965 ft | 416 kts | 236° |
| 2026-05-06 19:04 | 37.34591 | -76.36574 | 23962 ft | 418 kts | 236° |
| 2026-05-06 19:04 | 37.32743 | -76.39418 | 23960 ft | 418 kts | 236° |
| 2026-05-06 19:04 | 37.30896 | -76.42249 | 23963 ft | 417 kts | 236° |
| 2026-05-06 19:05 | 37.29059 | -76.45072 | 23962 ft | 416 kts | 236° |
| 2026-05-06 19:05 | 37.27225 | -76.47885 | 23958 ft | 415 kts | 236° |
| 2026-05-06 19:05 | 37.25422 | -76.50652 | 23959 ft | 415 kts | 236° |
| 2026-05-06 19:05 | 37.23626 | -76.53443 | 23414 ft | 401 kts | 237° |
| 2026-05-06 19:06 | 37.21883 | -76.56197 | 22034 ft | 397 kts | 237° |
| 2026-05-06 19:06 | 37.20182 | -76.58866 | 21949 ft | 396 kts | 236° |
| 2026-05-06 19:06 | 37.18412 | -76.61631 | 21954 ft | 410 kts | 236° |
| 2026-05-06 19:06 | 37.16618 | -76.64409 | 21949 ft | 409 kts | 236° |
| 2026-05-06 19:07 | 37.14828 | -76.67189 | 21949 ft | 410 kts | 236° |
| 2026-05-06 19:07 | 37.13639 | -76.69048 | 21952 ft | 412 kts | 236° |
| 2026-05-06 19:07 | 37.11275 | -76.72718 | 21950 ft | 404 kts | 236° |
| 2026-05-06 19:07 | 37.09509 | -76.75460 | 21951 ft | 404 kts | 236° |
| 2026-05-06 19:08 | 37.07744 | -76.78203 | 21955 ft | 404 kts | 236° |
| 2026-05-06 19:08 | 37.05969 | -76.80951 | 21954 ft | 404 kts | 236° |
| 2026-05-06 19:08 | 37.04223 | -76.83656 | 21959 ft | 403 kts | 236° |
| 2026-05-06 19:08 | 37.02493 | -76.86323 | 20484 ft | 384 kts | 235° |
| 2026-05-06 19:09 | 37.00925 | -76.88735 | 18111 ft | 337 kts | 233° |
| 2026-05-06 19:09 | 36.99494 | -76.90961 | 16987 ft | 317 kts | 233° |
| 2026-05-06 19:09 | 36.98188 | -76.92979 | 16933 ft | 288 kts | 233° |
| 2026-05-06 19:09 | 36.96972 | -76.94852 | 16937 ft | 267 kts | 234° |
| 2026-05-06 19:10 | 36.95831 | -76.96610 | 16933 ft | 253 kts | 234° |
| 2026-05-06 19:10 | 36.94688 | -76.98379 | 16936 ft | 279 kts | 234° |
| 2026-05-06 19:10 | 36.93401 | -77.00370 | 16941 ft | 311 kts | 233° |
| 2026-05-06 19:10 | 36.91958 | -77.02582 | 16955 ft | 339 kts | 233° |
| 2026-05-06 19:11 | 36.90450 | -77.04889 | 16954 ft | 344 kts | 233° |
| 2026-05-06 19:11 | 36.88926 | -77.07226 | 16957 ft | 347 kts | 233° |
| 2026-05-06 19:11 | 36.87423 | -77.09533 | 16884 ft | 347 kts | 233° |
| 2026-05-06 19:11 | 36.85899 | -77.11870 | 16764 ft | 346 kts | 233° |
| 2026-05-06 19:12 | 36.84385 | -77.14190 | 16615 ft | 341 kts | 233° |
| 2026-05-06 19:12 | 36.82894 | -77.16466 | 16418 ft | 332 kts | 233° |
| 2026-05-06 19:12 | 36.81444 | -77.18688 | 16216 ft | 328 kts | 233° |
| 2026-05-06 19:12 | 36.80487 | -77.20152 | 16087 ft | 329 kts | 233° |
| 2026-05-06 19:13 | 36.78557 | -77.23104 | 15844 ft | 331 kts | 233° |
| 2026-05-06 19:13 | 36.77078 | -77.25315 | 15643 ft | 331 kts | 232° |
| 2026-05-06 19:13 | 36.75590 | -77.27503 | 15458 ft | 329 kts | 232° |
| 2026-05-06 19:13 | 36.74122 | -77.29691 | 15270 ft | 328 kts | 232° |
| 2026-05-06 19:14 | 36.72668 | -77.31861 | 15088 ft | 319 kts | 232° |
| 2026-05-06 19:14 | 36.71302 | -77.33890 | 14881 ft | 299 kts | 232° |
| 2026-05-06 19:14 | 36.69991 | -77.35839 | 14691 ft | 285 kts | 232° |
| 2026-05-06 19:14 | 36.68738 | -77.37703 | 14493 ft | 283 kts | 232° |
| 2026-05-06 19:15 | 36.67465 | -77.39602 | 14300 ft | 287 kts | 232° |
| 2026-05-06 19:15 | 36.66171 | -77.41518 | 14111 ft | 289 kts | 232° |
| 2026-05-06 19:15 | 36.65311 | -77.42795 | 13989 ft | 289 kts | 232° |
| 2026-05-06 19:15 | 36.64020 | -77.44710 | 13799 ft | 287 kts | 232° |
| 2026-05-06 19:16 | 36.62324 | -77.47223 | 13521 ft | 284 kts | 233° |
| 2026-05-06 19:16 | 36.61463 | -77.48498 | 13380 ft | 283 kts | 233° |
| 2026-05-06 19:16 | 36.60218 | -77.50343 | 13176 ft | 280 kts | 233° |
| 2026-05-06 19:16 | 36.58960 | -77.52202 | 12969 ft | 278 kts | 233° |
| 2026-05-06 19:17 | 36.57717 | -77.54042 | 12762 ft | 276 kts | 233° |
| 2026-05-06 19:17 | 36.56496 | -77.55846 | 12559 ft | 274 kts | 233° |
| 2026-05-06 19:17 | 36.55266 | -77.57667 | 12356 ft | 274 kts | 233° |
| 2026-05-06 19:17 | 36.54034 | -77.59483 | 12155 ft | 274 kts | 233° |
| 2026-05-06 19:18 | 36.52823 | -77.61272 | 11958 ft | 272 kts | 233° |
| 2026-05-06 19:18 | 36.51602 | -77.63069 | 11755 ft | 270 kts | 233° |
| 2026-05-06 19:18 | 36.50393 | -77.64854 | 11556 ft | 268 kts | 233° |
| 2026-05-06 19:18 | 36.49193 | -77.66622 | 11362 ft | 266 kts | 233° |
| 2026-05-06 19:19 | 36.48000 | -77.68376 | 11167 ft | 265 kts | 233° |
| 2026-05-06 19:19 | 36.46830 | -77.70103 | 10974 ft | 263 kts | 234° |
| 2026-05-06 19:19 | 36.45649 | -77.71836 | 10798 ft | 261 kts | 234° |
| 2026-05-06 19:19 | 36.44482 | -77.73556 | 10654 ft | 259 kts | 234° |
| 2026-05-06 19:20 | 36.43334 | -77.75243 | 10501 ft | 259 kts | 234° |
| 2026-05-06 19:20 | 36.42169 | -77.76954 | 10367 ft | 258 kts | 234° |
| 2026-05-06 19:20 | 36.41001 | -77.78669 | 10227 ft | 259 kts | 234° |
| 2026-05-06 19:20 | 36.39835 | -77.80379 | 10087 ft | 260 kts | 234° |
| 2026-05-06 19:21 | 36.38683 | -77.82071 | 9949 ft | 259 kts | 234° |
| 2026-05-06 19:21 | 36.37512 | -77.83784 | 9801 ft | 260 kts | 234° |
| 2026-05-06 19:21 | 36.36305 | -77.85564 | 9652 ft | 287 kts | 234° |
| 2026-05-06 19:21 | 36.34967 | -77.87532 | 9512 ft | 303 kts | 233° |
| 2026-05-06 19:22 | 36.33589 | -77.89532 | 9374 ft | 306 kts | 233° |
| 2026-05-06 19:22 | 36.32195 | -77.91567 | 9231 ft | 308 kts | 233° |
| 2026-05-06 19:22 | 36.30825 | -77.93571 | 9088 ft | 307 kts | 233° |
| 2026-05-06 19:22 | 36.29445 | -77.95592 | 8979 ft | 303 kts | 233° |
| 2026-05-06 19:23 | 36.28103 | -77.97540 | 8976 ft | 288 kts | 233° |
| 2026-05-06 19:23 | 36.26833 | -77.99394 | 8971 ft | 277 kts | 234° |
| 2026-05-06 19:23 | 36.25594 | -78.01206 | 8964 ft | 275 kts | 234° |
| 2026-05-06 19:23 | 36.24496 | -78.03116 | 8973 ft | 276 kts | 243° |
| 2026-05-06 19:24 | 36.23596 | -78.05223 | 8977 ft | 277 kts | 245° |
| 2026-05-06 19:24 | 36.22684 | -78.07331 | 8978 ft | 276 kts | 245° |
| 2026-05-06 19:24 | 36.21910 | -78.09462 | 8977 ft | 273 kts | 250° |
| 2026-05-06 19:24 | 36.21207 | -78.11609 | 8275 ft | 270 kts | 249° |
| 2026-05-06 19:25 | 36.20468 | -78.13633 | 7212 ft | 244 kts | 246° |
| 2026-05-06 19:25 | 36.19778 | -78.15450 | 6154 ft | 226 kts | 246° |
| 2026-05-06 19:25 | 36.19138 | -78.17185 | 5994 ft | 220 kts | 246° |
| 2026-05-06 19:25 | 36.18462 | -78.19018 | 5994 ft | 239 kts | 246° |
| 2026-05-06 19:26 | 36.17790 | -78.20854 | 5990 ft | 230 kts | 246° |
| 2026-05-06 19:26 | 36.17131 | -78.22655 | 5997 ft | 231 kts | 247° |
| 2026-05-06 19:26 | 36.16478 | -78.24490 | 6001 ft | 234 kts | 247° |
| 2026-05-06 19:26 | 36.15821 | -78.26321 | 6000 ft | 234 kts | 246° |
| 2026-05-06 19:27 | 36.15162 | -78.28137 | 5959 ft | 228 kts | 246° |
| 2026-05-06 19:27 | 36.14517 | -78.29925 | 5436 ft | 228 kts | 246° |
| 2026-05-06 19:27 | 36.13866 | -78.31723 | 5035 ft | 225 kts | 246° |
| 2026-05-06 19:27 | 36.13249 | -78.33427 | 5018 ft | 217 kts | 246° |
| 2026-05-06 19:28 | 36.12619 | -78.35171 | 5017 ft | 224 kts | 246° |
| 2026-05-06 19:28 | 36.11992 | -78.36905 | 5017 ft | 218 kts | 246° |
| 2026-05-06 19:28 | 36.11370 | -78.38611 | 5014 ft | 215 kts | 246° |
| 2026-05-06 19:28 | 36.10765 | -78.40290 | 5008 ft | 211 kts | 245° |
| 2026-05-06 19:29 | 36.10165 | -78.41939 | 5009 ft | 213 kts | 246° |
| 2026-05-06 19:29 | 36.09558 | -78.43615 | 5006 ft | 216 kts | 246° |
| 2026-05-06 19:29 | 36.08950 | -78.45290 | 5006 ft | 210 kts | 246° |
| 2026-05-06 19:29 | 36.08353 | -78.46934 | 5004 ft | 209 kts | 246° |
| 2026-05-06 19:30 | 36.07753 | -78.48579 | 5001 ft | 208 kts | 246° |
| 2026-05-06 19:30 | 36.07169 | -78.50185 | 5000 ft | 207 kts | 246° |
| 2026-05-06 19:30 | 36.06572 | -78.51830 | 4999 ft | 211 kts | 246° |
| 2026-05-06 19:30 | 36.05971 | -78.53482 | 4905 ft | 206 kts | 245° |
| 2026-05-06 19:31 | 36.05383 | -78.55095 | 4204 ft | 210 kts | 245° |
| 2026-05-06 19:31 | 36.04770 | -78.56682 | 3999 ft | 196 kts | 240° |
| 2026-05-06 19:31 | 36.03006 | -78.59233 | 4003 ft | 185 kts | 226° |
| 2026-05-06 19:32 | 36.02116 | -78.60341 | 4003 ft | 178 kts | 227° |
| 2026-05-06 19:32 | 36.01254 | -78.61422 | 4009 ft | 180 kts | 227° |
| 2026-05-06 19:32 | 36.00376 | -78.62509 | 3860 ft | 171 kts | 227° |
| 2026-05-06 19:32 | 35.99863 | -78.63149 | 3404 ft | 174 kts | 226° |
| 2026-05-06 19:33 | 35.99017 | -78.64194 | 3031 ft | 162 kts | 225° |
| 2026-05-06 19:33 | 35.98317 | -78.65064 | 2951 ft | 122 kts | 226° |
| 2026-05-06 19:33 | 35.97707 | -78.65820 | 2808 ft | 128 kts | 224° |
| 2026-05-06 19:33 | 35.97134 | -78.66529 | 2263 ft | 116 kts | 224° |
| 2026-05-06 19:34 | 35.96573 | -78.67225 | 2002 ft | 110 kts | 224° |
| 2026-05-06 19:34 | 35.96041 | -78.67888 | 2000 ft | 104 kts | 224° |
| 2026-05-06 19:34 | 35.95525 | -78.68521 | 2001 ft | 107 kts | 223° |
| 2026-05-06 19:34 | 35.95014 | -78.69158 | 2010 ft | 103 kts | 224° |
| 2026-05-06 19:35 | 35.94496 | -78.69800 | 1969 ft | 108 kts | 223° |
| 2026-05-06 19:35 | 35.93990 | -78.70433 | 1883 ft | 101 kts | 225° |
| 2026-05-06 19:35 | 35.93488 | -78.71050 | 1801 ft | 104 kts | 223° |
| 2026-05-06 19:35 | 35.92974 | -78.71686 | 1714 ft | 106 kts | 226° |
| 2026-05-06 19:36 | 35.92444 | -78.72349 | 1638 ft | 108 kts | 224° |
| 2026-05-06 19:36 | 35.91919 | -78.72981 | 1530 ft | 105 kts | 225° |
| 2026-05-06 19:36 | 35.91420 | -78.73617 | 1364 ft | 100 kts | 222° |
| 2026-05-06 19:36 | 35.90921 | -78.74212 | 1153 ft | 101 kts | 222° |
| 2026-05-06 19:37 | 35.90448 | -78.74844 | 1014 ft | 96 kts | 228° |
| 2026-05-06 19:37 | 35.89971 | -78.75418 | 1086 ft | 100 kts | 225° |
| 2026-05-06 19:37 | 35.89483 | -78.76033 | 1148 ft | 102 kts | 224° |
| 2026-05-06 19:37 | 35.88966 | -78.76649 | 1020 ft | 104 kts | 223° |
| 2026-05-06 19:38 | 35.88450 | -78.77296 | 752 ft | 113 kts | 222° |
| 2026-05-06 19:38 | 35.87891 | -78.77968 | 515 ft | 108 kts | 227° |
| 2026-05-06 19:38 | 35.87425 | -78.78552 | 431 ft | 83 kts | 226° |
| 2026-05-06 19:38 | 35.87184 | -78.78849 | 420 ft | 22 kts | 225° |
| 2026-05-06 19:39 | 35.87166 | -78.78926 | 417 ft | 6 kts | 310° |
| 2026-05-06 19:39 | 35.87194 | -78.78965 | 418 ft | 7 kts | 309° |
| 2026-05-06 19:39 | 35.87218 | -78.78985 | 419 ft | 2 kts | 2° |
| 2026-05-06 19:39 | 35.87220 | -78.78984 | 419 ft | 0 kts | 14° |
| 2026-05-06 19:40 | 35.87244 | -78.78961 | 420 ft | 12 kts | 46° |
| 2026-05-06 19:40 | 35.87346 | -78.78837 | 420 ft | 28 kts | 45° |
| 2026-05-06 19:40 | 35.87361 | -78.78819 | 416 ft | 0 kts | 45° |
| 2026-05-06 19:40 | 35.87379 | -78.78796 | 423 ft | 20 kts | 45° |
| 2026-05-06 19:41 | 35.87594 | -78.78531 | 426 ft | 58 kts | 45° |
| 2026-05-06 19:41 | 35.87866 | -78.78196 | 428 ft | 44 kts | 44° |
| 2026-05-06 19:41 | 35.87943 | -78.78179 | 425 ft | 10 kts | 319° |
| 2026-05-06 19:41 | 35.87988 | -78.78244 | 430 ft | 9 kts | 314° |
| 2026-05-06 19:42 | 35.88007 | -78.78266 | 433 ft | 0 kts | 250° |
| 2026-05-06 19:42 | 35.87985 | -78.78290 | 422 ft | 11 kts | 223° |